sensor_id;sensor_type;location;lat;lon;timestamp;temperature;humidity
9977;DHT22;5029;47.378;11.776;2022-11-15T00:03:24;2.30;99.90
9977;DHT22;5029;47.378;11.776;2022-11-15T00:08:31;2.20;99.90
9977;DHT22;5029;47.378;11.776;2022-11-15T00:13:57;2.10;99.90
9977;DHT22;5029;47.378;11.776;2022-11-15T00:25:56;2.20;99.90
9977;DHT22;5029;47.378;11.776;2022-11-15T00:31:18;2.00;99.90
9977;DHT22;5029;47.378;11.776;2022-11-15T00:36:32;1.90;99.90
9977;DHT22;5029;47.378;11.776;2022-11-15T00:41:46;1.90;99.90
9977;DHT22;5029;47.378;11.776;2022-11-15T00:47:00;2.00;99.90
9977;DHT22;5029;47.378;11.776;2022-11-15T00:52:28;2.10;99.90
9977;DHT22;5029;47.378;11.776;2022-11-15T00:57:45;2.00;99.90
9977;DHT22;5029;47.378;11.776;2022-11-15T01:03:00;2.00;99.90
9977;DHT22;5029;47.378;11.776;2022-11-15T01:08:04;2.00;99.90
9977;DHT22;5029;47.378;11.776;2022-11-15T01:13:14;2.00;99.90
9977;DHT22;5029;47.378;11.776;2022-11-15T01:18:25;2.00;99.90
9977;DHT22;5029;47.378;11.776;2022-11-15T01:23:30;1.90;99.90
9977;DHT22;5029;47.378;11.776;2022-11-15T01:28:44;1.70;99.90
9977;DHT22;5029;47.378;11.776;2022-11-15T01:33:50;1.80;99.90
9977;DHT22;5029;47.378;11.776;2022-11-15T01:39:00;1.80;99.90
9977;DHT22;5029;47.378;11.776;2022-11-15T01:51:11;1.50;99.90
9977;DHT22;5029;47.378;11.776;2022-11-15T01:56:44;1.50;99.90
9977;DHT22;5029;47.378;11.776;2022-11-15T02:02:00;1.50;99.90
9977;DHT22;5029;47.378;11.776;2022-11-15T02:07:14;1.40;99.90
9977;DHT22;5029;47.378;11.776;2022-11-15T02:12:21;1.40;99.90
9977;DHT22;5029;47.378;11.776;2022-11-15T02:17:48;1.50;99.90
9977;DHT22;5029;47.378;11.776;2022-11-15T02:23:27;1.60;99.90
9977;DHT22;5029;47.378;11.776;2022-11-15T02:35:27;1.60;99.90
9977;DHT22;5029;47.378;11.776;2022-11-15T02:40:38;1.40;99.90
9977;DHT22;5029;47.378;11.776;2022-11-15T02:46:06;1.70;99.90
9977;DHT22;5029;47.378;11.776;2022-11-15T02:51:16;1.90;99.90
9977;DHT22;5029;47.378;11.776;2022-11-15T02:56:37;1.70;99.90
9977;DHT22;5029;47.378;11.776;2022-11-15T03:01:55;1.60;99.90
9977;DHT22;5029;47.378;11.776;2022-11-15T03:07:32;1.60;99.90
9977;DHT22;5029;47.378;11.776;2022-11-15T03:12:42;1.40;99.90
9977;DHT22;5029;47.378;11.776;2022-11-15T03:18:01;1.60;99.90
9977;DHT22;5029;47.378;11.776;2022-11-15T03:23:11;1.50;99.90
9977;DHT22;5029;47.378;11.776;2022-11-15T03:28:25;1.40;99.90
9977;DHT22;5029;47.378;11.776;2022-11-15T03:33:39;1.10;99.90
9977;DHT22;5029;47.378;11.776;2022-11-15T03:38:54;1.30;99.90
9977;DHT22;5029;47.378;11.776;2022-11-15T03:44:12;1.20;99.90
9977;DHT22;5029;47.378;11.776;2022-11-15T03:49:25;1.10;99.90
9977;DHT22;5029;47.378;11.776;2022-11-15T03:54:48;1.00;99.90
9977;DHT22;5029;47.378;11.776;2022-11-15T03:59:54;0.70;99.90
9977;DHT22;5029;47.378;11.776;2022-11-15T04:05:07;0.90;99.90
9977;DHT22;5029;47.378;11.776;2022-11-15T04:10:35;0.80;99.90
9977;DHT22;5029;47.378;11.776;2022-11-15T04:15:45;0.90;99.90
9977;DHT22;5029;47.378;11.776;2022-11-15T04:21:00;1.10;99.90
9977;DHT22;5029;47.378;11.776;2022-11-15T04:26:26;1.20;99.90
9977;DHT22;5029;47.378;11.776;2022-11-15T04:32:05;0.70;99.90
9977;DHT22;5029;47.378;11.776;2022-11-15T04:37:49;1.00;99.90
9977;DHT22;5029;47.378;11.776;2022-11-15T04:43:00;0.70;99.90
9977;DHT22;5029;47.378;11.776;2022-11-15T04:48:08;0.70;99.90
9977;DHT22;5029;47.378;11.776;2022-11-15T04:53:16;0.70;99.90
9977;DHT22;5029;47.378;11.776;2022-11-15T04:58:30;0.60;99.90
9977;DHT22;5029;47.378;11.776;2022-11-15T05:03:33;0.50;99.90
9977;DHT22;5029;47.378;11.776;2022-11-15T05:08:54;0.70;99.90
9977;DHT22;5029;47.378;11.776;2022-11-15T05:14:04;0.60;99.90
9977;DHT22;5029;47.378;11.776;2022-11-15T05:19:10;0.70;99.90
9977;DHT22;5029;47.378;11.776;2022-11-15T05:24:18;0.90;99.90
9977;DHT22;5029;47.378;11.776;2022-11-15T05:29:57;0.40;99.90
9977;DHT22;5029;47.378;11.776;2022-11-15T05:35:18;0.40;99.90
9977;DHT22;5029;47.378;11.776;2022-11-15T05:40:28;0.30;99.90
9977;DHT22;5029;47.378;11.776;2022-11-15T05:45:36;0.10;99.90
9977;DHT22;5029;47.378;11.776;2022-11-15T05:51:08;0.20;99.90
9977;DHT22;5029;47.378;11.776;2022-11-15T05:56:16;0.40;99.90
9977;DHT22;5029;47.378;11.776;2022-11-15T06:01:21;0.10;99.90
9977;DHT22;5029;47.378;11.776;2022-11-15T06:06:46;-0.10;99.90
9977;DHT22;5029;47.378;11.776;2022-11-15T06:12:01;0.00;99.90
9977;DHT22;5029;47.378;11.776;2022-11-15T06:17:30;0.00;99.90
9977;DHT22;5029;47.378;11.776;2022-11-15T06:22:35;0.20;99.90
9977;DHT22;5029;47.378;11.776;2022-11-15T06:27:40;0.00;99.90
9977;DHT22;5029;47.378;11.776;2022-11-15T06:32:58;0.30;99.90
9977;DHT22;5029;47.378;11.776;2022-11-15T06:38:20;0.40;99.90
9977;DHT22;5029;47.378;11.776;2022-11-15T07:17:13;0.70;99.90
9977;DHT22;5029;47.378;11.776;2022-11-15T07:22:17;1.40;99.90
9977;DHT22;5029;47.378;11.776;2022-11-15T07:27:21;1.90;99.90
9977;DHT22;5029;47.378;11.776;2022-11-15T07:32:26;0.70;99.90
9977;DHT22;5029;47.378;11.776;2022-11-15T07:37:30;0.50;99.90
9977;DHT22;5029;47.378;11.776;2022-11-15T07:42:34;0.70;99.90
9977;DHT22;5029;47.378;11.776;2022-11-15T07:47:59;0.50;99.90
9977;DHT22;5029;47.378;11.776;2022-11-15T07:53:03;0.70;99.90
9977;DHT22;5029;47.378;11.776;2022-11-15T07:58:09;0.70;99.90
9977;DHT22;5029;47.378;11.776;2022-11-15T08:03:17;0.80;99.90
9977;DHT22;5029;47.378;11.776;2022-11-15T08:08:21;0.90;99.90
9977;DHT22;5029;47.378;11.776;2022-11-15T08:13:25;0.90;99.90
9977;DHT22;5029;47.378;11.776;2022-11-15T08:18:31;0.70;99.90
9977;DHT22;5029;47.378;11.776;2022-11-15T08:23:35;0.60;99.90
9977;DHT22;5029;47.378;11.776;2022-11-15T08:28:41;0.50;99.90
9977;DHT22;5029;47.378;11.776;2022-11-15T08:33:47;0.80;99.90
9977;DHT22;5029;47.378;11.776;2022-11-15T08:38:51;0.90;99.90
9977;DHT22;5029;47.378;11.776;2022-11-15T08:43:55;0.50;99.90
9977;DHT22;5029;47.378;11.776;2022-11-15T08:49:00;0.40;99.90
9977;DHT22;5029;47.378;11.776;2022-11-15T08:54:06;0.60;99.90
9977;DHT22;5029;47.378;11.776;2022-11-15T08:59:10;0.60;99.90
9977;DHT22;5029;47.378;11.776;2022-11-15T09:04:16;0.90;99.90
9977;DHT22;5029;47.378;11.776;2022-11-15T09:09:20;1.00;99.90
9977;DHT22;5029;47.378;11.776;2022-11-15T09:14:24;1.20;99.90
9977;DHT22;5029;47.378;11.776;2022-11-15T09:19:30;1.30;99.90
9977;DHT22;5029;47.378;11.776;2022-11-15T09:24:34;1.30;99.90
9977;DHT22;5029;47.378;11.776;2022-11-15T09:29:41;1.40;99.90
9977;DHT22;5029;47.378;11.776;2022-11-15T09:34:46;1.40;99.90
9977;DHT22;5029;47.378;11.776;2022-11-15T09:39:50;1.50;99.90
9977;DHT22;5029;47.378;11.776;2022-11-15T09:45:08;1.90;99.90
9977;DHT22;5029;47.378;11.776;2022-11-15T09:50:31;2.10;99.90
9977;DHT22;5029;47.378;11.776;2022-11-15T09:55:41;3.00;99.90
9977;DHT22;5029;47.378;11.776;2022-11-15T10:00:48;3.10;99.90
9977;DHT22;5029;47.378;11.776;2022-11-15T10:06:02;3.30;99.90
9977;DHT22;5029;47.378;11.776;2022-11-15T10:11:08;3.20;99.90
9977;DHT22;5029;47.378;11.776;2022-11-15T10:16:58;3.40;99.90
9977;DHT22;5029;47.378;11.776;2022-11-15T10:22:26;3.50;99.90
9977;DHT22;5029;47.378;11.776;2022-11-15T10:27:37;3.80;99.90
9977;DHT22;5029;47.378;11.776;2022-11-15T10:32:44;3.90;99.90
9977;DHT22;5029;47.378;11.776;2022-11-15T10:38:14;4.60;99.90
9977;DHT22;5029;47.378;11.776;2022-11-15T10:43:33;5.00;99.90
9977;DHT22;5029;47.378;11.776;2022-11-15T10:48:49;4.50;99.90
9977;DHT22;5029;47.378;11.776;2022-11-15T10:54:00;5.20;99.90
9977;DHT22;5029;47.378;11.776;2022-11-15T10:59:26;5.40;99.90
9977;DHT22;5029;47.378;11.776;2022-11-15T11:05:12;4.60;99.90
9977;DHT22;5029;47.378;11.776;2022-11-15T11:11:03;4.40;99.90
9977;DHT22;5029;47.378;11.776;2022-11-15T11:16:34;4.50;99.90
9977;DHT22;5029;47.378;11.776;2022-11-15T11:21:59;4.50;99.90
9977;DHT22;5029;47.378;11.776;2022-11-15T11:27:18;4.30;99.90
9977;DHT22;5029;47.378;11.776;2022-11-15T11:32:38;4.00;99.90
9977;DHT22;5029;47.378;11.776;2022-11-15T11:37:49;3.90;99.90
9977;DHT22;5029;47.378;11.776;2022-11-15T11:42:59;4.00;99.90
9977;DHT22;5029;47.378;11.776;2022-11-15T13:06:57;6.00;99.90
9977;DHT22;5029;47.378;11.776;2022-11-15T13:12:03;6.00;99.90
9977;DHT22;5029;47.378;11.776;2022-11-15T13:17:28;6.20;99.90
9977;DHT22;5029;47.378;11.776;2022-11-15T13:22:40;5.90;99.90
9977;DHT22;5029;47.378;11.776;2022-11-15T13:28:02;5.50;99.90
9977;DHT22;5029;47.378;11.776;2022-11-15T13:33:16;5.20;99.90
9977;DHT22;5029;47.378;11.776;2022-11-15T13:38:27;5.10;99.90
9977;DHT22;5029;47.378;11.776;2022-11-15T16:10:01;5.60;99.90
9977;DHT22;5029;47.378;11.776;2022-11-15T16:15:18;5.40;99.90
9977;DHT22;5029;47.378;11.776;2022-11-15T16:20:51;5.20;99.90
9977;DHT22;5029;47.378;11.776;2022-11-15T16:26:47;5.10;99.90
9977;DHT22;5029;47.378;11.776;2022-11-15T16:32:26;5.00;99.90
9977;DHT22;5029;47.378;11.776;2022-11-15T16:38:08;5.00;99.90
9977;DHT22;5029;47.378;11.776;2022-11-15T16:43:20;5.20;99.90
9977;DHT22;5029;47.378;11.776;2022-11-15T16:48:33;5.10;99.90
9977;DHT22;5029;47.378;11.776;2022-11-15T17:00:08;5.30;99.90
9977;DHT22;5029;47.378;11.776;2022-11-15T17:05:39;5.30;99.90
9977;DHT22;5029;47.378;11.776;2022-11-15T17:16:15;5.30;99.90
9977;DHT22;5029;47.378;11.776;2022-11-15T17:21:21;5.30;99.90
9977;DHT22;5029;47.378;11.776;2022-11-15T17:26:38;5.40;99.90
9977;DHT22;5029;47.378;11.776;2022-11-15T17:31:45;5.30;99.90
9977;DHT22;5029;47.378;11.776;2022-11-15T17:36:53;5.30;99.90
9977;DHT22;5029;47.378;11.776;2022-11-15T17:41:59;5.40;99.90
9977;DHT22;5029;47.378;11.776;2022-11-15T17:47:11;5.30;99.90
9977;DHT22;5029;47.378;11.776;2022-11-15T17:52:22;5.10;99.90
9977;DHT22;5029;47.378;11.776;2022-11-15T17:57:31;5.30;99.90
9977;DHT22;5029;47.378;11.776;2022-11-15T18:02:50;5.40;99.90
9977;DHT22;5029;47.378;11.776;2022-11-15T18:07:58;5.30;99.90
9977;DHT22;5029;47.378;11.776;2022-11-15T18:13:17;5.30;99.90
9977;DHT22;5029;47.378;11.776;2022-11-15T18:18:34;5.00;99.90
9977;DHT22;5029;47.378;11.776;2022-11-15T18:23:42;5.30;99.90
9977;DHT22;5029;47.378;11.776;2022-11-15T18:28:48;5.40;99.90
9977;DHT22;5029;47.378;11.776;2022-11-15T18:33:58;5.30;99.90
9977;DHT22;5029;47.378;11.776;2022-11-15T18:39:05;5.10;99.90
9977;DHT22;5029;47.378;11.776;2022-11-15T18:44:14;5.00;99.90
9977;DHT22;5029;47.378;11.776;2022-11-15T18:49:39;5.00;99.90
9977;DHT22;5029;47.378;11.776;2022-11-15T18:54:52;5.20;99.90
9977;DHT22;5029;47.378;11.776;2022-11-15T19:00:00;5.20;99.90
9977;DHT22;5029;47.378;11.776;2022-11-15T19:05:12;4.90;99.90
9977;DHT22;5029;47.378;11.776;2022-11-15T19:10:33;4.80;99.90
9977;DHT22;5029;47.378;11.776;2022-11-15T19:15:58;4.50;99.90
9977;DHT22;5029;47.378;11.776;2022-11-15T19:21:11;4.50;99.90
9977;DHT22;5029;47.378;11.776;2022-11-15T19:26:18;4.50;99.90
9977;DHT22;5029;47.378;11.776;2022-11-15T19:31:30;4.30;99.90
9977;DHT22;5029;47.378;11.776;2022-11-15T19:36:37;4.30;99.90
9977;DHT22;5029;47.378;11.776;2022-11-15T19:41:54;4.20;99.90
9977;DHT22;5029;47.378;11.776;2022-11-15T19:46:59;4.20;99.90
9977;DHT22;5029;47.378;11.776;2022-11-15T19:52:12;4.10;99.90
9977;DHT22;5029;47.378;11.776;2022-11-15T19:57:30;4.00;99.90
9977;DHT22;5029;47.378;11.776;2022-11-15T20:02:36;4.00;99.90
9977;DHT22;5029;47.378;11.776;2022-11-15T20:07:43;4.00;99.90
9977;DHT22;5029;47.378;11.776;2022-11-15T20:12:49;3.90;99.90
9977;DHT22;5029;47.378;11.776;2022-11-15T20:18:06;3.90;99.90
9977;DHT22;5029;47.378;11.776;2022-11-15T20:23:16;3.70;99.90
9977;DHT22;5029;47.378;11.776;2022-11-15T20:28:28;3.90;99.90
9977;DHT22;5029;47.378;11.776;2022-11-15T20:33:36;3.90;99.90
9977;DHT22;5029;47.378;11.776;2022-11-15T20:38:55;3.80;99.90
9977;DHT22;5029;47.378;11.776;2022-11-15T20:44:02;3.90;99.90
9977;DHT22;5029;47.378;11.776;2022-11-15T20:49:09;3.80;99.90
9977;DHT22;5029;47.378;11.776;2022-11-15T20:54:15;3.80;99.90
9977;DHT22;5029;47.378;11.776;2022-11-15T20:59:22;3.60;99.90
9977;DHT22;5029;47.378;11.776;2022-11-15T21:04:26;3.70;99.90
9977;DHT22;5029;47.378;11.776;2022-11-15T21:09:32;3.60;99.90
9977;DHT22;5029;47.378;11.776;2022-11-15T21:14:53;3.50;99.90
9977;DHT22;5029;47.378;11.776;2022-11-15T21:19:58;3.60;99.90
9977;DHT22;5029;47.378;11.776;2022-11-15T21:25:08;3.50;99.90
9977;DHT22;5029;47.378;11.776;2022-11-15T21:30:12;3.40;99.90
9977;DHT22;5029;47.378;11.776;2022-11-15T21:35:17;3.40;99.90
9977;DHT22;5029;47.378;11.776;2022-11-15T21:40:22;3.30;99.90
9977;DHT22;5029;47.378;11.776;2022-11-15T21:45:28;3.30;99.90
9977;DHT22;5029;47.378;11.776;2022-11-15T21:50:32;3.10;99.90
9977;DHT22;5029;47.378;11.776;2022-11-15T21:55:39;3.20;99.90
9977;DHT22;5029;47.378;11.776;2022-11-15T22:00:43;3.10;99.90
9977;DHT22;5029;47.378;11.776;2022-11-15T22:06:05;3.20;99.90
9977;DHT22;5029;47.378;11.776;2022-11-15T22:11:16;3.30;99.90
9977;DHT22;5029;47.378;11.776;2022-11-15T22:16:43;3.40;99.90
9977;DHT22;5029;47.378;11.776;2022-11-15T22:21:55;3.40;99.90
9977;DHT22;5029;47.378;11.776;2022-11-15T22:27:00;3.40;99.90
9977;DHT22;5029;47.378;11.776;2022-11-15T22:32:04;3.40;99.90
9977;DHT22;5029;47.378;11.776;2022-11-15T22:37:07;3.40;99.90
9977;DHT22;5029;47.378;11.776;2022-11-15T22:42:23;3.40;99.90
9977;DHT22;5029;47.378;11.776;2022-11-15T22:47:27;3.30;99.90
9977;DHT22;5029;47.378;11.776;2022-11-15T22:52:32;3.30;99.90
9977;DHT22;5029;47.378;11.776;2022-11-15T22:57:37;3.20;99.90
9977;DHT22;5029;47.378;11.776;2022-11-15T23:02:41;3.10;99.90
9977;DHT22;5029;47.378;11.776;2022-11-15T23:07:45;2.80;99.90
9977;DHT22;5029;47.378;11.776;2022-11-15T23:12:53;2.80;99.90
9977;DHT22;5029;47.378;11.776;2022-11-15T23:18:14;2.70;99.90
9977;DHT22;5029;47.378;11.776;2022-11-15T23:23:20;2.80;99.90
9977;DHT22;5029;47.378;11.776;2022-11-15T23:28:25;2.90;99.90
9977;DHT22;5029;47.378;11.776;2022-11-15T23:33:38;3.00;99.90
9977;DHT22;5029;47.378;11.776;2022-11-15T23:39:00;3.00;99.90
9977;DHT22;5029;47.378;11.776;2022-11-15T23:44:06;3.00;99.90
9977;DHT22;5029;47.378;11.776;2022-11-15T23:49:11;3.10;99.90
9977;DHT22;5029;47.378;11.776;2022-11-15T23:54:15;3.10;99.90
9977;DHT22;5029;47.378;11.776;2022-11-15T23:59:20;3.10;99.90
